Terminal Aerodrome Forecast
Issued by NWS North Platte, NE

Home | Current Version | Previous Version | Graphics & Text | Print | Product List | Glossary On
Versions: 1 2 3 4 5 6 7 8 9 10 11 12 13 14
000
FTUS43 KLBF 301721
TAFVTN
TAF
KVTN 301721Z 3018/0118 03019G27KT 4SM -RA BR OVC010
     FM302300 02013G18KT 4SM -RA BR OVC007
     FM010600 01011KT 4SM BR VCSH OVC010
     FM011300 35010KT P6SM SCT015=

USA.gov is the U.S. government's official web portal to all federal, state and local government web resources and services.